createdAt,value
2022-10-22T00:01:40.369Z,20.25
2022-10-22T00:04:12.044Z,23.00
2022-10-22T00:06:45.120Z,24.48
2022-10-22T00:09:17.197Z,25.17
2022-10-22T00:11:48.965Z,23.85
2022-10-22T00:14:20.792Z,21.95
2022-10-22T00:16:56.457Z,24.92
2022-10-22T00:19:28.406Z,24.88
2022-10-22T00:22:00.178Z,23.50
2022-10-22T00:24:35.675Z,26.42
2022-10-22T00:27:10.361Z,26.27
2022-10-22T00:32:15.436Z,23.58
2022-10-22T00:34:47.137Z,25.42
2022-10-22T00:37:18.853Z,26.73
2022-10-22T00:39:50.635Z,22.63
2022-10-22T00:42:25.006Z,24.65
2022-10-22T00:45:11.978Z,25.10
2022-10-22T00:47:51.140Z,24.80
2022-10-22T00:51:04.387Z,24.75
2022-10-22T00:53:45.888Z,25.27
2022-10-22T00:56:17.930Z,22.95
2022-10-22T00:58:55.591Z,24.25
2022-10-22T01:01:31.255Z,25.60
2022-10-22T01:04:03.009Z,27.00
2022-10-22T01:06:34.820Z,24.75
2022-10-22T01:09:12.323Z,33.83
2022-10-22T01:12:10.665Z,27.13
2022-10-22T01:15:02.492Z,28.00
2022-10-22T01:17:57.317Z,27.02
2022-10-22T01:20:57.241Z,27.30
2022-10-22T01:23:39.890Z,22.13
2022-10-22T01:26:30.101Z,24.45
2022-10-22T01:29:30.590Z,30.88
2022-10-22T01:32:08.245Z,29.90
2022-10-22T01:34:44.199Z,27.80
2022-10-22T01:37:18.718Z,29.45
2022-10-22T01:39:51.936Z,30.27
2022-10-22T01:42:26.951Z,28.00
2022-10-22T01:45:00.704Z,28.60
2022-10-22T01:47:35.378Z,28.10
2022-10-22T01:53:09.044Z,33.03
2022-10-22T01:55:59.205Z,31.58
2022-10-22T01:59:04.127Z,30.60
2022-10-22T02:01:48.495Z,35.97
2022-10-22T02:04:35.384Z,30.30
2022-10-22T02:07:11.458Z,29.67
2022-10-22T02:09:43.872Z,32.83
2022-10-22T02:12:21.641Z,31.08
2022-10-22T02:14:55.674Z,27.90
2022-10-22T02:17:31.598Z,33.67
2022-10-22T02:20:12.927Z,29.45
2022-10-22T02:22:45.294Z,29.42
2022-10-22T02:25:17.312Z,27.10
2022-10-22T02:27:54.375Z,40.90
2022-10-22T02:30:26.458Z,35.50
2022-10-22T02:33:10.056Z,45.35
2022-10-22T02:35:46.662Z,43.20
2022-10-22T02:40:50.896Z,44.53
2022-10-22T02:43:25.510Z,36.47
2022-10-22T02:45:57.437Z,34.33
2022-10-22T02:48:29.368Z,39.58
2022-10-22T02:51:03.976Z,35.08
2022-10-22T02:53:35.754Z,39.78
2022-10-22T02:56:07.671Z,42.22
2022-10-22T02:58:39.437Z,37.05
2022-10-22T03:01:16.096Z,35.53
2022-10-22T03:03:48.179Z,44.15
2022-10-22T03:06:20.050Z,50.17
2022-10-22T03:08:51.890Z,43.10
2022-10-22T03:11:23.682Z,35.65
2022-10-22T03:13:55.448Z,31.13
2022-10-22T03:16:30.322Z,37.58
2022-10-22T03:19:04.626Z,33.17
2022-10-22T03:21:44.590Z,30.77
2022-10-22T03:24:58.120Z,33.85
2022-10-22T03:27:30.311Z,32.80
2022-10-22T03:30:05.882Z,36.63
2022-10-22T03:32:37.625Z,33.03
2022-10-22T03:35:09.597Z,39.40
2022-10-22T03:37:41.481Z,39.38
2022-10-22T03:40:17.044Z,32.05
2022-10-22T03:42:51.823Z,36.42
2022-10-22T03:47:55.150Z,29.52
2022-10-22T03:50:26.875Z,34.35
2022-10-22T03:52:58.708Z,32.95
2022-10-22T03:55:33.456Z,35.53
2022-10-22T04:00:38.657Z,35.28
2022-10-22T04:03:10.479Z,41.60
2022-10-22T04:05:42.152Z,38.13
2022-10-22T04:08:16.907Z,35.53
2022-10-22T04:10:52.335Z,35.55
2022-10-22T04:13:24.504Z,34.97
2022-10-22T04:15:57.632Z,29.55
2022-10-22T04:18:29.366Z,30.45
2022-10-22T04:21:01.073Z,31.33
2022-10-22T04:23:33.045Z,33.63
2022-10-22T04:26:07.933Z,31.33
2022-10-22T04:28:39.539Z,34.05
2022-10-22T04:31:14.522Z,26.38
2022-10-22T04:33:49.987Z,30.13
2022-10-22T04:36:23.035Z,31.40
2022-10-22T04:39:07.476Z,30.60
2022-10-22T04:41:39.509Z,29.38
2022-10-22T04:44:13.791Z,37.33
2022-10-22T04:46:48.550Z,46.50
2022-10-22T04:49:20.332Z,41.25
2022-10-22T04:51:52.122Z,35.15
2022-10-22T04:54:26.620Z,34.95
2022-10-22T04:57:00.599Z,34.13
2022-10-22T04:59:32.826Z,32.25
2022-10-22T05:02:04.587Z,31.20
2022-10-22T05:04:36.280Z,36.83
2022-10-22T05:07:11.055Z,31.65
2022-10-22T05:09:45.796Z,36.60
2022-10-22T05:14:49.018Z,34.63
2022-10-22T05:17:20.805Z,30.08
2022-10-22T05:19:55.510Z,29.67
2022-10-22T05:24:58.807Z,30.20
2022-10-22T05:27:30.546Z,33.47
2022-10-22T05:30:02.251Z,31.58
2022-10-22T05:32:35.396Z,31.23
2022-10-22T05:35:07.347Z,32.10
2022-10-22T05:37:42.313Z,34.03
2022-10-22T05:40:26.906Z,34.97
2022-10-22T05:43:03.820Z,32.13
2022-10-22T05:45:42.944Z,33.10
2022-10-22T05:48:14.995Z,33.95
2022-10-22T05:50:50.845Z,31.38
2022-10-22T05:53:25.472Z,31.30
2022-10-22T05:56:00.728Z,29.33
2022-10-22T05:58:38.725Z,31.95
2022-10-22T06:01:24.078Z,31.60
2022-10-22T06:04:03.837Z,29.70
2022-10-22T06:06:39.579Z,32.63
2022-10-22T06:09:20.119Z,29.63
2022-10-22T06:11:53.527Z,26.88
2022-10-22T06:14:28.652Z,34.13
2022-10-22T06:17:01.830Z,30.08
2022-10-22T06:19:33.645Z,29.40
2022-10-22T06:22:05.724Z,28.90
2022-10-22T06:24:40.426Z,25.40
2022-10-22T06:27:14.573Z,28.00
2022-10-22T06:29:46.269Z,24.25
2022-10-22T06:32:18.204Z,27.90
2022-10-22T06:34:50.908Z,27.95
2022-10-22T06:37:22.578Z,27.63
2022-10-22T06:39:54.647Z,27.98
2022-10-22T06:42:30.669Z,26.83
2022-10-22T06:45:04.908Z,25.95
2022-10-22T06:47:36.536Z,27.20
2022-10-22T06:50:09.745Z,27.02
2022-10-22T06:52:42.486Z,26.98
2022-10-22T06:55:14.315Z,27.23
2022-10-22T06:57:46.012Z,25.90
2022-10-22T07:00:17.956Z,26.98
2022-10-22T07:02:56.506Z,29.70
2022-10-22T07:05:33.522Z,25.85
2022-10-22T07:08:11.171Z,26.15
2022-10-22T07:10:42.976Z,28.30
2022-10-22T07:13:21.853Z,30.02
2022-10-22T07:16:00.250Z,27.88
2022-10-22T07:18:32.565Z,27.50
2022-10-22T07:21:05.633Z,28.40
2022-10-22T07:23:38.105Z,25.55
2022-10-22T07:26:15.788Z,27.52
2022-10-22T07:28:50.135Z,26.77
2022-10-22T07:31:21.860Z,27.90
2022-10-22T07:33:54.279Z,31.42
2022-10-22T07:36:26.052Z,26.88
2022-10-22T07:38:59.259Z,26.05
2022-10-22T07:41:31.344Z,27.13
2022-10-22T07:44:03.027Z,28.70
2022-10-22T07:46:35.817Z,26.13
2022-10-22T07:49:13.546Z,26.52
2022-10-22T07:51:47.874Z,27.45
2022-10-22T07:54:19.487Z,29.73
2022-10-22T07:56:51.231Z,30.90
2022-10-22T07:59:23.286Z,26.92
2022-10-22T08:01:54.965Z,29.25
2022-10-22T08:04:26.804Z,25.50
2022-10-22T08:06:58.781Z,26.50
2022-10-22T08:09:30.621Z,26.67
2022-10-22T08:12:02.388Z,28.80
2022-10-22T08:14:35.642Z,30.15
2022-10-22T08:17:07.348Z,26.35
2022-10-22T08:19:40.295Z,28.70
2022-10-22T08:22:11.986Z,26.60
2022-10-22T08:24:43.823Z,28.50
2022-10-22T08:27:19.508Z,26.35
2022-10-22T08:29:53.686Z,23.60
2022-10-22T08:34:59.357Z,27.40
2022-10-22T08:37:31.102Z,24.50
2022-10-22T08:40:04.678Z,26.40
2022-10-22T08:42:38.769Z,28.77
2022-10-22T08:45:41.377Z,27.30
2022-10-22T08:48:34.199Z,30.08
2022-10-22T08:51:06.078Z,26.48
2022-10-22T08:53:45.584Z,28.85
2022-10-22T08:56:17.273Z,29.35
2022-10-22T08:59:16.305Z,25.15
2022-10-22T09:01:51.400Z,31.55
2022-10-22T09:04:33.831Z,26.83
2022-10-22T09:07:10.453Z,27.23
2022-10-22T09:09:49.207Z,29.00
2022-10-22T09:12:27.110Z,25.45
2022-10-22T09:14:59.428Z,29.00
2022-10-22T09:17:44.653Z,28.90
2022-10-22T09:20:40.238Z,27.67
2022-10-22T09:23:30.492Z,27.77
2022-10-22T09:26:02.839Z,27.83
2022-10-22T09:28:37.055Z,22.45
2022-10-22T09:31:13.567Z,22.45
2022-10-22T09:33:49.140Z,24.15
2022-10-22T09:36:23.912Z,25.77
2022-10-22T09:39:02.221Z,24.05
2022-10-22T09:41:34.256Z,25.15
2022-10-22T09:44:10.302Z,23.67
2022-10-22T09:46:48.148Z,24.80
2022-10-22T09:49:23.205Z,25.00
2022-10-22T09:52:03.186Z,26.23
2022-10-22T09:54:41.825Z,25.15
2022-10-22T09:57:22.500Z,25.63
2022-10-22T09:59:57.525Z,23.08
2022-10-22T10:02:44.713Z,24.50
2022-10-22T10:05:25.450Z,23.00
2022-10-22T10:07:58.413Z,23.95
2022-10-22T10:10:43.728Z,20.83
2022-10-22T10:13:43.860Z,24.38
2022-10-22T10:16:41.608Z,21.58
2022-10-22T10:19:29.015Z,21.85
2022-10-22T10:22:25.155Z,22.63
2022-10-22T10:25:29.531Z,20.67
2022-10-22T10:28:42.716Z,20.08
2022-10-22T10:31:42.309Z,19.85
2022-10-22T10:34:35.375Z,21.88
2022-10-22T10:37:18.564Z,18.20
2022-10-22T10:40:14.380Z,20.63
2022-10-22T10:42:55.908Z,22.08
2022-10-22T10:45:30.504Z,23.00
2022-10-22T10:48:27.743Z,20.35
2022-10-22T10:51:21.391Z,23.77
2022-10-22T10:54:33.105Z,22.20
2022-10-22T10:57:13.625Z,19.80
2022-10-22T11:00:03.435Z,20.95
2022-10-22T11:03:05.543Z,21.33
2022-10-22T11:05:59.458Z,18.20
2022-10-22T11:08:36.398Z,20.50
2022-10-22T11:11:30.271Z,20.92
2022-10-22T11:14:07.760Z,19.15
2022-10-22T11:16:46.749Z,19.55
2022-10-22T11:19:51.062Z,16.35
2022-10-22T11:22:26.609Z,16.83
2022-10-22T11:25:13.556Z,14.20
2022-10-22T11:28:11.573Z,12.45
2022-10-22T11:30:48.947Z,10.32
2022-10-22T11:33:26.641Z,8.85
2022-10-22T11:36:00.080Z,7.90
2022-10-22T11:38:36.545Z,9.63
2022-10-22T11:41:15.656Z,7.85
2022-10-22T11:43:56.526Z,7.28
2022-10-22T11:46:44.497Z,6.10
2022-10-22T11:49:20.693Z,7.13
2022-10-22T11:52:07.856Z,6.55
2022-10-22T11:54:44.969Z,6.07
2022-10-22T11:57:16.642Z,6.90
2022-10-22T11:59:52.978Z,8.05
2022-10-22T12:02:41.105Z,8.23
2022-10-22T12:05:22.153Z,6.20
2022-10-22T12:08:03.773Z,8.35
2022-10-22T12:10:59.418Z,6.28
2022-10-22T12:14:09.658Z,4.43
2022-10-22T12:16:55.834Z,6.35
2022-10-22T12:19:36.908Z,4.47
2022-10-22T12:22:16.904Z,4.22
2022-10-22T12:24:57.730Z,7.57
2022-10-22T12:27:41.576Z,7.22
2022-10-22T12:30:22.413Z,5.00
2022-10-22T12:32:56.952Z,3.90
2022-10-22T12:35:41.996Z,5.18
2022-10-22T12:38:21.664Z,5.95
2022-10-22T12:40:56.939Z,5.88
2022-10-22T12:43:33.597Z,4.68
2022-10-22T12:46:13.651Z,4.40
2022-10-22T12:48:46.136Z,4.85
2022-10-22T12:51:20.424Z,5.68
2022-10-22T12:53:54.792Z,3.92
2022-10-22T12:56:33.280Z,5.10
2022-10-22T12:59:18.348Z,5.47
2022-10-22T13:01:51.968Z,4.32
2022-10-22T13:04:26.963Z,5.00
2022-10-22T13:07:10.259Z,3.78
2022-10-22T13:10:01.456Z,3.58
2022-10-22T13:12:37.102Z,2.25
2022-10-22T13:15:27.544Z,4.00
2022-10-22T13:18:21.483Z,3.13
2022-10-22T13:21:03.141Z,4.68
2022-10-22T13:23:35.173Z,4.50
2022-10-22T13:26:20.672Z,3.75
2022-10-22T13:28:54.753Z,4.20
2022-10-22T13:31:29.521Z,2.97
2022-10-22T13:34:11.679Z,5.45
2022-10-22T13:36:45.323Z,5.15
2022-10-22T13:39:19.037Z,3.20
2022-10-22T13:41:51.988Z,3.95
2022-10-22T13:44:23.727Z,3.65
2022-10-22T13:46:56.301Z,3.83
2022-10-22T13:49:28.039Z,5.00
2022-10-22T13:52:01.146Z,2.50
2022-10-22T13:54:37.870Z,2.70
2022-10-22T13:57:10.695Z,3.72
2022-10-22T13:59:42.483Z,3.78
2022-10-22T14:02:14.463Z,3.65
2022-10-22T14:04:50.819Z,2.50
2022-10-22T14:07:22.509Z,3.45
2022-10-22T14:09:54.167Z,3.83
2022-10-22T14:12:25.858Z,3.97
2022-10-22T14:17:34.110Z,2.78
2022-10-22T14:20:06.360Z,3.22
2022-10-22T14:22:46.557Z,5.28
2022-10-22T14:25:24.794Z,2.95
2022-10-22T14:27:57.070Z,2.80
2022-10-22T14:30:30.352Z,4.93
2022-10-22T14:33:32.135Z,4.65
2022-10-22T14:36:10.255Z,3.97
2022-10-22T14:38:48.614Z,3.55
2022-10-22T14:41:25.595Z,6.32
2022-10-22T14:44:01.010Z,6.78
2022-10-22T14:46:36.108Z,3.60
2022-10-22T14:51:48.141Z,4.45
2022-10-22T14:54:20.063Z,3.15
2022-10-22T14:56:56.505Z,3.28
2022-10-22T14:59:29.330Z,6.65
2022-10-22T15:02:01.241Z,4.10
2022-10-22T15:04:33.088Z,3.55
2022-10-22T15:07:05.474Z,5.45
2022-10-22T15:09:40.250Z,4.05
2022-10-22T15:12:11.988Z,4.93
2022-10-22T15:14:46.540Z,7.38
2022-10-22T15:19:50.233Z,4.53
2022-10-22T15:22:24.489Z,6.00
2022-10-22T15:25:00.641Z,4.00
2022-10-22T15:27:32.456Z,5.10
2022-10-22T15:30:07.890Z,7.15
2022-10-22T15:32:40.618Z,6.18
2022-10-22T15:35:14.955Z,4.07
2022-10-22T15:37:46.769Z,3.90
2022-10-22T15:40:18.423Z,3.20
2022-10-22T15:42:50.099Z,4.75
2022-10-22T15:45:22.528Z,7.85
2022-10-22T15:47:54.324Z,6.20
2022-10-22T15:50:28.567Z,6.53
2022-10-22T15:53:00.259Z,3.78
2022-10-22T15:55:32.055Z,7.00
2022-10-22T15:58:04.348Z,4.63
2022-10-22T16:00:36.350Z,6.55
2022-10-22T16:03:10.949Z,5.85
2022-10-22T16:08:30.279Z,5.53
2022-10-22T16:11:02.132Z,5.60
2022-10-22T16:13:36.291Z,4.55
2022-10-22T16:16:08.666Z,8.07
2022-10-22T16:18:40.817Z,6.20
2022-10-22T16:21:14.561Z,5.70
2022-10-22T16:23:47.293Z,6.82
2022-10-22T16:26:20.150Z,4.57
2022-10-22T16:28:52.011Z,6.82
2022-10-22T16:31:24.159Z,7.25
2022-10-22T16:33:56.271Z,7.90
2022-10-22T16:36:32.173Z,8.02
2022-10-22T16:39:04.884Z,7.07
2022-10-22T16:41:37.518Z,8.70
2022-10-22T16:44:12.324Z,9.85
2022-10-22T16:46:44.075Z,9.15
2022-10-22T16:49:16.057Z,9.15
2022-10-22T16:51:47.818Z,9.90
2022-10-22T16:54:21.794Z,8.25
2022-10-22T16:56:53.517Z,10.77
2022-10-22T16:59:25.371Z,10.35
2022-10-22T17:01:57.457Z,10.75
2022-10-22T17:04:29.337Z,7.57
2022-10-22T17:07:01.164Z,6.85
2022-10-22T17:09:32.817Z,10.27
2022-10-22T17:12:04.643Z,7.57
2022-10-22T17:14:45.479Z,9.30
2022-10-22T17:17:20.232Z,8.13
2022-10-22T17:19:52.605Z,7.53
2022-10-22T17:22:27.497Z,10.35
2022-10-22T17:25:11.730Z,10.45
2022-10-22T17:27:44.492Z,6.97
2022-10-22T17:30:23.258Z,7.95
2022-10-22T17:33:01.240Z,6.85
2022-10-22T17:35:39.670Z,7.25
2022-10-22T17:38:13.258Z,7.60
2022-10-22T17:40:47.535Z,7.90
2022-10-22T17:43:24.365Z,9.45
2022-10-22T17:46:08.148Z,9.23
2022-10-22T17:48:40.241Z,8.43
2022-10-22T17:51:13.762Z,9.07
2022-10-22T17:53:46.330Z,12.63
2022-10-22T17:56:23.941Z,10.88
2022-10-22T17:58:55.973Z,8.57
2022-10-22T18:01:30.958Z,8.80
2022-10-22T18:04:06.185Z,10.57
2022-10-22T18:06:41.136Z,8.35
2022-10-22T18:09:18.745Z,9.18
2022-10-22T18:11:53.233Z,12.77
2022-10-22T18:14:25.097Z,9.00
2022-10-22T18:16:58.930Z,10.93
2022-10-22T18:19:31.099Z,11.38
2022-10-22T18:22:02.891Z,8.88
2022-10-22T18:24:41.570Z,10.55
2022-10-22T18:27:13.235Z,10.82
2022-10-22T18:29:51.399Z,11.07
2022-10-22T18:32:23.116Z,9.90
2022-10-22T18:34:54.770Z,11.55
2022-10-22T18:37:26.504Z,11.20
2022-10-22T18:39:58.951Z,11.68
2022-10-22T18:42:32.962Z,12.48
2022-10-22T18:45:09.143Z,13.77
2022-10-22T18:47:41.756Z,10.83
2022-10-22T18:50:14.699Z,10.68
2022-10-22T18:55:19.548Z,12.32
2022-10-22T18:57:51.412Z,8.95
2022-10-22T19:00:23.128Z,8.52
2022-10-22T19:02:55.055Z,8.20
2022-10-22T19:05:26.703Z,9.10
2022-10-22T19:07:59.405Z,13.13
2022-10-22T19:10:31.102Z,10.63
2022-10-22T19:13:02.861Z,9.15
2022-10-22T19:15:34.563Z,10.50
2022-10-22T19:18:06.212Z,12.02
2022-10-22T19:20:38.941Z,9.52
2022-10-22T19:23:10.575Z,8.93
2022-10-22T19:25:43.861Z,9.35
2022-10-22T19:28:15.500Z,9.65
2022-10-22T19:30:47.141Z,12.80
2022-10-22T19:33:19.152Z,10.77
2022-10-22T19:35:51.490Z,11.55
2022-10-22T19:38:27.729Z,16.30
2022-10-22T19:40:59.506Z,14.50
2022-10-22T19:43:31.240Z,9.93
2022-10-22T19:46:05.049Z,12.10
2022-10-22T19:48:38.026Z,13.15
2022-10-22T19:51:16.395Z,10.90
2022-10-22T19:53:56.358Z,13.05
2022-10-22T19:56:29.247Z,11.13
2022-10-22T19:59:06.570Z,13.30
2022-10-22T20:01:38.707Z,14.50
2022-10-22T20:04:15.120Z,10.45
2022-10-22T20:06:46.988Z,11.45
2022-10-22T20:09:21.623Z,12.85
2022-10-22T20:14:24.980Z,13.18
2022-10-22T20:16:56.648Z,17.60
2022-10-22T20:19:29.350Z,13.07
2022-10-22T20:22:01.558Z,11.95
2022-10-22T20:24:33.827Z,12.85
2022-10-22T20:27:05.895Z,13.02
2022-10-22T20:29:40.366Z,14.15
2022-10-22T20:32:14.532Z,12.45
2022-10-22T20:34:46.296Z,15.85
2022-10-22T20:37:20.521Z,12.07
2022-10-22T20:39:52.225Z,13.93
2022-10-22T20:42:24.619Z,12.38
2022-10-22T20:44:56.697Z,12.15
2022-10-22T20:47:39.211Z,13.25
2022-10-22T20:50:21.536Z,15.40
2022-10-22T20:52:53.997Z,14.20
2022-10-22T20:55:26.489Z,19.58
2022-10-22T20:58:01.135Z,13.68
2022-10-22T21:03:07.606Z,14.02
2022-10-22T21:05:39.385Z,13.10
2022-10-22T21:08:17.263Z,15.00
2022-10-22T21:10:50.474Z,12.27
2022-10-22T21:13:22.201Z,12.70
2022-10-22T21:15:56.608Z,12.20
2022-10-22T21:18:28.292Z,18.98
2022-10-22T21:21:00.357Z,15.73
2022-10-22T21:23:35.747Z,12.27
2022-10-22T21:26:07.442Z,10.90
2022-10-22T21:28:39.824Z,13.77
2022-10-22T21:31:18.786Z,10.27
2022-10-22T21:33:50.711Z,10.88
2022-10-22T21:36:23.472Z,12.80
2022-10-22T21:38:56.363Z,11.32
2022-10-22T21:41:31.488Z,15.07
2022-10-22T21:44:03.460Z,12.45
2022-10-22T21:46:35.458Z,12.50
2022-10-22T21:49:08.500Z,15.40
2022-10-22T21:51:40.478Z,15.10
2022-10-22T21:54:15.413Z,11.25
2022-10-22T21:56:47.791Z,13.75
2022-10-22T21:59:19.719Z,14.00
2022-10-22T22:01:51.426Z,13.98
2022-10-22T22:04:23.088Z,15.00
2022-10-22T22:06:57.595Z,13.23
2022-10-22T22:09:29.235Z,17.30
2022-10-22T22:12:01.211Z,12.82
2022-10-22T22:14:32.902Z,12.32
2022-10-22T22:17:07.801Z,18.02
2022-10-22T22:19:39.477Z,14.02
2022-10-22T22:22:11.316Z,16.10
2022-10-22T22:24:43.761Z,14.98
2022-10-22T22:27:17.416Z,16.43
2022-10-22T22:29:49.257Z,14.98
2022-10-22T22:32:21.007Z,16.85
2022-10-22T22:34:52.718Z,14.77
2022-10-22T22:37:24.518Z,17.10
2022-10-22T22:40:02.546Z,15.23
2022-10-22T22:42:34.525Z,16.88
2022-10-22T22:45:06.555Z,14.98
2022-10-22T22:47:38.874Z,17.17
2022-10-22T22:50:10.929Z,15.88
2022-10-22T22:52:42.756Z,16.08
2022-10-22T22:55:17.986Z,13.45
2022-10-22T22:57:50.417Z,15.27
2022-10-22T23:00:22.648Z,17.00
2022-10-22T23:02:56.158Z,19.23
2022-10-22T23:05:30.972Z,19.70
2022-10-22T23:08:03.179Z,16.25
2022-10-22T23:10:37.870Z,14.27
2022-10-22T23:13:09.776Z,14.15
2022-10-22T23:15:41.454Z,15.43
2022-10-22T23:18:13.638Z,15.13
2022-10-22T23:20:45.347Z,16.15
2022-10-22T23:23:17.060Z,15.77
2022-10-22T23:25:48.912Z,13.15
2022-10-22T23:28:24.170Z,15.02
2022-10-22T23:30:57.524Z,17.50
2022-10-22T23:33:29.168Z,12.65
2022-10-22T23:36:02.286Z,16.13
2022-10-22T23:38:37.823Z,17.38
2022-10-22T23:41:12.337Z,17.50
2022-10-22T23:43:44.582Z,13.48
2022-10-22T23:46:19.251Z,15.93
2022-10-22T23:51:23.064Z,11.60
2022-10-22T23:53:56.987Z,14.68
2022-10-22T23:56:30.423Z,31.50
2022-10-22T23:59:03.924Z,14.43
